Observation data for Clarendon on 10/17/2019      Previous  Date       Current Mesonet Observations  Soil Data  Daily Summary Page  Observations in Plain Language
KCES 170500Z 19002KT 09/M00 A3008 RMK A01 T00851003  RH  055%=      5-min Rain = 0
KCES 170505Z 19001KT 08/M00 A3008 RMK A01 T00831003  RH  055%=      5-min Rain = 0
KCES 170510Z 20002KT 08/M00 A3008 RMK A01 T00831002  RH  056%=      5-min Rain = 0
KCES 170515Z 21003KT 08/M00 A3008 RMK A01 T00831002  RH  056%=      5-min Rain = 0
KCES 170520Z 21004KT 08/M00 A3008 RMK A01 T00831002  RH  056%=      5-min Rain = 0
KCES 170525Z 21006KT 08/M00 A3008 RMK A01 T00811001  RH  057%=      5-min Rain = 0
KCES 170530Z 20006KT 08/M00 A3008 RMK A01 T00771001  RH  058%=      5-min Rain = 0
KCES 170535Z 20005KT 08/M00 A3008 RMK A01 T00751001  RH  059%=      5-min Rain = 0
KCES 170540Z 20003KT 07/M00 A3008 RMK A01 T00741001  RH  060%=      5-min Rain = 0
KCES 170545Z 20003KT 07/M00 A3008 RMK A01 T00721001  RH  060%=      5-min Rain = 0
KCES 170550Z 20003KT 07/M00 A3008 RMK A01 T00691002  RH  061%=      5-min Rain = 0
KCES 170555Z 20004KT 07/00 A3008 RMK A01 T007000-0  RH  062%=      5-min Rain = 0
KCES 170600Z 19005KT 08/00 A3008 RMK A01 T007500-0  RH  060%=      5-min Rain = 0
KCES 170605Z 19007KT 08/M00 A3007 RMK A01 T00751001  RH  059%=      5-min Rain = 0
KCES 170610Z 19007KT 08/00 A3007 RMK A01 T00800000  RH  058%=      5-min Rain = 0
KCES 170615Z 19007KT 09/00 A3007 RMK A01 T00890002  RH  055%=      5-min Rain = 0
KCES 170620Z 19006KT 10/00 A3007 RMK A01 T009600-0  RH  052%=      5-min Rain = 0
KCES 170625Z 18007KT 10/M00 A3008 RMK A01 T00991001  RH  050%=      5-min Rain = 0
KCES 170630Z 18007KT 10/M00 A3008 RMK A01 T01021003  RH  049%=      5-min Rain = 0
KCES 170635Z 18006KT 10/M00 A3008 RMK A01 T01001003  RH  049%=      5-min Rain = 0
KCES 170640Z 19005KT 10/M00 A3008 RMK A01 T00961004  RH  050%=      5-min Rain = 0
KCES 170645Z 18004KT 09/M01 A3008 RMK A01 T00921005  RH  051%=      5-min Rain = 0
KCES 170650Z 18003KT 09/M00 A3008 RMK A01 T00871004  RH  053%=      5-min Rain = 0
KCES 170655Z 18005KT 08/M00 A3007 RMK A01 T00821004  RH  055%=      5-min Rain = 0
KCES 170700Z 19005KT 08/M01 A3007 RMK A01 T00811005  RH  055%=      5-min Rain = 0
KCES 170705Z 18006KT 08/M00 A3007 RMK A01 T00801004  RH  056%=      5-min Rain = 0
KCES 170710Z 18007KT 09/M00 A3007 RMK A01 T00851002  RH  055%=      5-min Rain = 0
KCES 170715Z 18007KT 09/M00 A3007 RMK A01 T00911004  RH  052%=      5-min Rain = 0
KCES 170720Z 18007KT 09/M01 A3007 RMK A01 T00901005  RH  052%=      5-min Rain = 0
KCES 170725Z 18007KT 09/M01 A3007 RMK A01 T00871005  RH  053%=      5-min Rain = 0
KCES 170730Z 19005KT 08/M01 A3007 RMK A01 T00841005  RH  054%=      5-min Rain = 0
KCES 170735Z 19005KT 08/M01 A3007 RMK A01 T00841005  RH  054%=      5-min Rain = 0
KCES 170740Z 19006KT 09/M00 A3007 RMK A01 T00851004  RH  054%=      5-min Rain = 0
KCES 170745Z 19006KT 08/M00 A3007 RMK A01 T00831004  RH  055%=      5-min Rain = 0
KCES 170750Z 18007KT 08/M00 A3007 RMK A01 T00841003  RH  055%=      5-min Rain = 0
KCES 170755Z 18007KT 08/M00 A3007 RMK A01 T00841003  RH  055%=      5-min Rain = 0
KCES 170800Z 18007KT 08/M00 A3007 RMK A01 T00821004  RH  055%=      5-min Rain = 0
KCES 170805Z 18007KT 08/M00 A3007 RMK A01 T00811003  RH  056%=      5-min Rain = 0
KCES 170810Z 18007KT 08/M00 A3007 RMK A01 T00841003  RH  055%=      5-min Rain = 0
KCES 170815Z 19006KT 08/M00 A3007 RMK A01 T00831003  RH  055%=      5-min Rain = 0
KCES 170820Z 19007KT 08/M00 A3006 RMK A01 T00821004  RH  055%=      5-min Rain = 0
KCES 170825Z 19005KT 08/M00 A3006 RMK A01 T00801004  RH  056%=      5-min Rain = 0
KCES 170830Z 19006KT 08/M00 A3006 RMK A01 T00781004  RH  057%=      5-min Rain = 0
KCES 170835Z 19007KT 08/M01 A3006 RMK A01 T00751005  RH  057%=      5-min Rain = 0
KCES 170840Z 19006KT 07/M00 A3006 RMK A01 T00721004  RH  059%=      5-min Rain = 0
KCES 170845Z 20002KT 07/M01 A3006 RMK A01 T00681005  RH  060%=      5-min Rain = 0
KCES 170850Z 20002KT 07/M01 A3006 RMK A01 T00651005  RH  062%=      5-min Rain = 0
KCES 170855Z 19002KT 06/M00 A3006 RMK A01 T00641004  RH  062%=      5-min Rain = 0
KCES 170900Z 18005KT 06/M00 A3005 RMK A01 T00631004  RH  063%=      5-min Rain = 0
KCES 170905Z 19008KT 06/M00 A3005 RMK A01 T00601002  RH  065%=      5-min Rain = 0
KCES 170910Z 19008KT 06/M00 A3004 RMK A01 T00591002  RH  066%=      5-min Rain = 0
KCES 170915Z 19007KT 06/M00 A3004 RMK A01 T00591002  RH  066%=      5-min Rain = 0
KCES 170920Z 19007KT 06/M00 A3004 RMK A01 T00571003  RH  066%=      5-min Rain = 0
KCES 170925Z 20006KT 06/M00 A3004 RMK A01 T00561003  RH  067%=      5-min Rain = 0
KCES 170930Z 20004KT 05/M01 A3004 RMK A01 T00541005  RH  067%=      5-min Rain = 0
KCES 170935Z 22002KT 05/M01 A3004 RMK A01 T00501005  RH  068%=      5-min Rain = 0
KCES 170940Z 23001KT 05/M00 A3003 RMK A01 T00501003  RH  069%=      5-min Rain = 0
KCES 170945Z 19002KT 06/M00 A3003 RMK A01 T00561001  RH  067%=      5-min Rain = 0
KCES 170950Z 20006KT 06/M00 A3003 RMK A01 T00611004  RH  064%=      5-min Rain = 0
KCES 170955Z 20009KT 06/00 A3003 RMK A01 T006300-0  RH  065%=      5-min Rain = 0
KCES 171000Z 20009KT 08/00 A3003 RMK A01 T00770000  RH  059%=      5-min Rain = 0
KCES 171005Z 20009KT 08/M00 A3003 RMK A01 T00811001  RH  057%=      5-min Rain = 0
KCES 171010Z 20009KT 08/M00 A3003 RMK A01 T00841002  RH  055%=      5-min Rain = 0
KCES 171015Z 20008KT 09/M00 A3003 RMK A01 T00861003  RH  054%=      5-min Rain = 0
KCES 171020Z 20008KT 09/M00 A3003 RMK A01 T00861003  RH  054%=      5-min Rain = 0
KCES 171025Z 20007KT 08/M00 A3003 RMK A01 T00841004  RH  054%=      5-min Rain = 0
KCES 171030Z 20007KT 08/M00 A3003 RMK A01 T00841004  RH  054%=      5-min Rain = 0
KCES 171035Z 20007KT 08/M00 A3003 RMK A01 T00841004  RH  054%=      5-min Rain = 0
KCES 171040Z 20008KT 09/M00 A3002 RMK A01 T00871004  RH  053%=      5-min Rain = 0
KCES 171045Z 20008KT 09/M00 A3002 RMK A01 T00901004  RH  053%=      5-min Rain = 0
KCES 171050Z 19009KT 09/M00 A3002 RMK A01 T00871004  RH  054%=      5-min Rain = 0
KCES 171055Z 19009KT 08/M00 A3002 RMK A01 T00821004  RH  055%=      5-min Rain = 0
KCES 171100Z 20009KT 08/M00 A3002 RMK A01 T00811004  RH  056%=      5-min Rain = 0
KCES 171105Z 20009KT 08/M00 A3002 RMK A01 T00841004  RH  054%=      5-min Rain = 0
KCES 171110Z 20010KT 09/M00 A3002 RMK A01 T00871004  RH  053%=      5-min Rain = 0
KCES 171115Z 20009KT 09/M00 A3002 RMK A01 T00871004  RH  053%=      5-min Rain = 0
KCES 171120Z 21006KT 08/M00 A3002 RMK A01 T00841004  RH  054%=      5-min Rain = 0
KCES 171125Z 22005KT 08/M01 A3003 RMK A01 T00801005  RH  056%=      5-min Rain = 0
KCES 171130Z 20006KT 08/M01 A3002 RMK A01 T00791005  RH  056%=      5-min Rain = 0
KCES 171135Z 20006KT 08/M01 A3002 RMK A01 T00791005  RH  056%=      5-min Rain = 0
KCES 171140Z 20005KT 08/M01 A3002 RMK A01 T00771006  RH  057%=      5-min Rain = 0
KCES 171145Z 19008KT 08/M00 A3002 RMK A01 T00761004  RH  058%=      5-min Rain = 0
KCES 171150Z 18008KT 08/M00 A3002 RMK A01 T00771003  RH  058%=      5-min Rain = 0
KCES 171155Z 18009KT 08/M00 A3002 RMK A01 T00791004  RH  057%=      5-min Rain = 0
KCES 171200Z 18009KT 08/M00 A3001 RMK A01 T00811004  RH  056%=      5-min Rain = 0
KCES 171205Z 17009KT 08/M01 A3001 RMK A01 T00811005  RH  055%=      5-min Rain = 0
KCES 171210Z 17010KT 08/M01 A3001 RMK A01 T00811005  RH  055%=      5-min Rain = 0
KCES 171215Z 17010KT 08/M01 A3001 RMK A01 T00831006  RH  054%=      5-min Rain = 0
KCES 171220Z 18009KT 08/M01 A3001 RMK A01 T00841007  RH  053%=      5-min Rain = 0
KCES 171225Z 18009KT 08/M01 A3001 RMK A01 T00841008  RH  053%=      5-min Rain = 0
KCES 171230Z 18009KT 09/M01 A3001 RMK A01 T00851009  RH  052%=      5-min Rain = 0
KCES 171235Z 18010KT 09/M01 A3001 RMK A01 T00851009  RH  052%=      5-min Rain = 0
KCES 171240Z 18009KT 09/M01 A3001 RMK A01 T00851009  RH  052%=      5-min Rain = 0
KCES 171245Z 18010KT 08/M01 A3001 RMK A01 T00841009  RH  052%=      5-min Rain = 0
KCES 171250Z 18010KT 09/M01 A3001 RMK A01 T00871010  RH  051%=      5-min Rain = 0
KCES 171255Z 18009KT 09/M01 A3001 RMK A01 T00881010  RH  051%=      5-min Rain = 0
KCES 171300Z 18009KT 09/M01 A3001 RMK A01 T00861010  RH  051%=      5-min Rain = 0
KCES 171305Z 18009KT 08/M01 A3001 RMK A01 T00841010  RH  052%=      5-min Rain = 0
KCES 171310Z 18009KT 08/M01 A3001 RMK A01 T00841010  RH  052%=      5-min Rain = 0
KCES 171315Z 18009KT 08/M01 A3001 RMK A01 T00841008  RH  053%=      5-min Rain = 0
KCES 171320Z 18009KT 09/M01 A3002 RMK A01 T00861007  RH  052%=      5-min Rain = 0
KCES 171325Z 19010KT 09/M01 A3002 RMK A01 T00881006  RH  052%=      5-min Rain = 0
KCES 171330Z 18011KT 09/M01 A3002 RMK A01 T00911006  RH  051%=      5-min Rain = 0
KCES 171335Z 19010KT 09/M01 A3002 RMK A01 T00931005  RH  051%=      5-min Rain = 0
KCES 171340Z 19010KT 10/M00 A3002 RMK A01 T00961004  RH  050%=      5-min Rain = 0
KCES 171345Z 19010KT 10/M00 A3002 RMK A01 T00991004  RH  049%=      5-min Rain = 0
KCES 171350Z 19010G15KT 10/M00 A3002 RMK A01 T01031004  RH  048%=      5-min Rain = 0
KCES 171355Z 19010KT 11/M00 A3002 RMK A01 T01061003  RH  047%=      5-min Rain = 0
KCES 171400Z 19010KT 11/M00 A3002 RMK A01 T01091002  RH  047%=      5-min Rain = 0
KCES 171405Z 19009KT 11/00 A3002 RMK A01 T01140001  RH  046%=      5-min Rain = 0
KCES 171410Z 19009KT 12/00 A3002 RMK A01 T01180004  RH  046%=      5-min Rain = 0
KCES 171415Z 19009KT 12/01 A3002 RMK A01 T01210006  RH  046%=      5-min Rain = 0
KCES 171420Z 19011KT 12/01 A3002 RMK A01 T01240007  RH  045%=      5-min Rain = 0
KCES 171425Z 20010KT 13/01 A3002 RMK A01 T01270008  RH  045%=      5-min Rain = 0
KCES 171430Z 20010KT 13/01 A3002 RMK A01 T01310009  RH  044%=      5-min Rain = 0
KCES 171435Z 20010KT 13/01 A3002 RMK A01 T01340009  RH  043%=      5-min Rain = 0
KCES 171440Z 20009KT 14/01 A3001 RMK A01 T01390013  RH  043%=      5-min Rain = 0
KCES 171445Z 20009KT 15/01 A3002 RMK A01 T01450014  RH  042%=      5-min Rain = 0
KCES 171450Z 21010G15KT 15/02 A3002 RMK A01 T01480015  RH  041%=      5-min Rain = 0
KCES 171455Z 22011KT 15/02 A3002 RMK A01 T01510015  RH  040%=      5-min Rain = 0
KCES 171500Z 21012KT 15/02 A3002 RMK A01 T01510016  RH  040%=      5-min Rain = 0
KCES 171505Z 21012KT 15/02 A3002 RMK A01 T01530016  RH  040%=      5-min Rain = 0
KCES 171510Z 21010KT 16/02 A3002 RMK A01 T01560018  RH  040%=      5-min Rain = 0
KCES 171515Z 21011KT 16/02 A3002 RMK A01 T01590017  RH  039%=      5-min Rain = 0
KCES 171520Z 21010KT 16/02 A3002 RMK A01 T01620018  RH  039%=      5-min Rain = 0
KCES 171525Z 21011KT 17/02 A3002 RMK A01 T01670016  RH  037%=      5-min Rain = 0
KCES 171530Z 21011KT 17/02 A3002 RMK A01 T01690016  RH  036%=      5-min Rain = 0
KCES 171535Z 20011KT 17/01 A3002 RMK A01 T01710014  RH  035%=      5-min Rain = 0
KCES 171540Z 21011KT 17/02 A3001 RMK A01 T01720016  RH  036%=      5-min Rain = 0
KCES 171545Z 21011KT 18/01 A3002 RMK A01 T01760014  RH  034%=      5-min Rain = 0
KCES 171550Z 21011G16KT 18/01 A3001 RMK A01 T01760014  RH  034%=      5-min Rain = 0
KCES 171555Z 21012KT 18/01 A3001 RMK A01 T01760013  RH  034%=      5-min Rain = 0
KCES 171600Z 21012G17KT 18/02 A3001 RMK A01 T01770015  RH  034%=      5-min Rain = 0
KCES 171605Z 22013KT 18/02 A30 RMK A01 T01780015  RH  034%=      5-min Rain = 0
KCES 171610Z 21012KT 18/02 A30 RMK A01 T01810019  RH  034%=      5-min Rain = 0
KCES 171615Z 21011KT 19/02 A30 RMK A01 T01850020  RH  034%=      5-min Rain = 0
KCES 171620Z 21012KT 19/02 A30 RMK A01 T01860021  RH  034%=      5-min Rain = 0
KCES 171625Z 21012KT 19/02 A30 RMK A01 T01860022  RH  034%=      5-min Rain = 0
KCES 171630Z 21012KT 19/02 A2999 RMK A01 T01860023  RH  034%=      5-min Rain = 0
KCES 171635Z 21013KT 19/02 A2999 RMK A01 T01890024  RH  034%=      5-min Rain = 0
KCES 171640Z 21013KT 19/03 A2999 RMK A01 T01910025  RH  034%=      5-min Rain = 0
KCES 171645Z 21013KT 20/03 A2999 RMK A01 T01950027  RH  033%=      5-min Rain = 0
KCES 171650Z 21013KT 20/03 A2999 RMK A01 T01960027  RH  033%=      5-min Rain = 0
KCES 171655Z 21014KT 20/03 A2998 RMK A01 T01960026  RH  033%=      5-min Rain = 0
KCES 171700Z 22014G19KT 20/03 A2998 RMK A01 T01980028  RH  033%=      5-min Rain = 0
KCES 171705Z 21014KT 20/03 A2998 RMK A01 T02010029  RH  032%=      5-min Rain = 0
KCES 171710Z 21015KT 20/03 A2998 RMK A01 T02040029  RH  032%=      5-min Rain = 0
KCES 171715Z 22015KT 21/03 A2997 RMK A01 T02050030  RH  032%=      5-min Rain = 0
KCES 171720Z 21014KT 21/03 A2997 RMK A01 T02090032  RH  032%=      5-min Rain = 0
KCES 171725Z 21014G19KT 21/03 A2997 RMK A01 T02120032  RH  031%=      5-min Rain = 0
KCES 171730Z 20013G19KT 22/03 A2997 RMK A01 T02170033  RH  030%=      5-min Rain = 0
KCES 171735Z 21014KT 22/03 A2997 RMK A01 T02200033  RH  030%=      5-min Rain = 0
KCES 171740Z 20014G19KT 22/04 A2997 RMK A01 T02240035  RH  029%=      5-min Rain = 0
KCES 171745Z 20016G21KT 23/03 A2996 RMK A01 T02260032  RH  028%=      5-min Rain = 0
KCES 171750Z 19014G19KT 23/03 A2996 RMK A01 T02280033  RH  028%=      5-min Rain = 0
KCES 171755Z 20013G18KT 23/03 A2996 RMK A01 T02300034  RH  028%=      5-min Rain = 0
KCES 171800Z 19012KT 23/04 A2996 RMK A01 T02320036  RH  028%=      5-min Rain = 0
KCES 171805Z 18014G19KT 23/04 A2995 RMK A01 T02320035  RH  028%=      5-min Rain = 0
KCES 171810Z 20013G18KT 24/04 A2995 RMK A01 T02350036  RH  028%=      5-min Rain = 0
KCES 171815Z 20013G18KT 24/04 A2995 RMK A01 T02400035  RH  027%=      5-min Rain = 0
KCES 171820Z 18013G18KT 24/04 A2995 RMK A01 T02430036  RH  026%=      5-min Rain = 0
KCES 171825Z 18014KT 24/04 A2994 RMK A01 T02430035  RH  026%=      5-min Rain = 0
KCES 171830Z 20013G18KT 24/04 A2994 RMK A01 T02430036  RH  026%=      5-min Rain = 0
KCES 171835Z 18014KT 25/03 A2994 RMK A01 T02460031  RH  025%=      5-min Rain = 0
KCES 171840Z 18015KT 25/03 A2993 RMK A01 T02480030  RH  025%=      5-min Rain = 0
KCES 171845Z 18013KT 25/03 A2993 RMK A01 T02490030  RH  024%=      5-min Rain = 0
KCES 171850Z 18014KT 25/03 A2993 RMK A01 T02490026  RH  024%=      5-min Rain = 0
KCES 171855Z 20013G18KT 25/03 A2993 RMK A01 T02500025  RH  024%=      5-min Rain = 0
KCES 171900Z 19013G21KT 25/03 A2992 RMK A01 T02540028  RH  023%=      5-min Rain = 0
KCES 171905Z 20013G18KT 26/03 A2992 RMK A01 T02550025  RH  023%=      5-min Rain = 0
KCES 171910Z 18012G19KT 26/02 A2992 RMK A01 T02560024  RH  023%=      5-min Rain = 0
KCES 171915Z 18013KT 26/02 A2991 RMK A01 T02560023  RH  022%=      5-min Rain = 0
KCES 171920Z 19013G19KT 26/02 A2991 RMK A01 T02580021  RH  022%=      5-min Rain = 0
KCES 171925Z 20012G20KT 26/02 A2991 RMK A01 T02610023  RH  022%=      5-min Rain = 0
KCES 171930Z 20013KT 26/02 A299 RMK A01 T02600016  RH  021%=      5-min Rain = 0
KCES 171935Z 20010G15KT 26/02 A299 RMK A01 T02630023  RH  021%=      5-min Rain = 0
KCES 171940Z 20012KT 27/02 A299 RMK A01 T02650023  RH  021%=      5-min Rain = 0
KCES 171945Z 19012KT 27/02 A2989 RMK A01 T02650016  RH  020%=      5-min Rain = 0
KCES 171950Z 20011G16KT 27/02 A2989 RMK A01 T02680018  RH  020%=      5-min Rain = 0
KCES 171955Z 19013G18KT 27/02 A2989 RMK A01 T02680016  RH  020%=      5-min Rain = 0
KCES 172000Z 19014G19KT 27/01 A2988 RMK A01 T02660009  RH  019%=      5-min Rain = 0
KCES 172005Z 21012G18KT 27/01 A2988 RMK A01 T02670012  RH  019%=      5-min Rain = 0
KCES 172010Z 21010G15KT 27/02 A2988 RMK A01 T02680017  RH  020%=      5-min Rain = 0
KCES 172015Z 19012G18KT 27/02 A2987 RMK A01 T02690015  RH  019%=      5-min Rain = 0
KCES 172020Z 18013KT 27/02 A2987 RMK A01 T02710015  RH  019%=      5-min Rain = 0
KCES 172025Z 19015G21KT 27/01 A2987 RMK A01 T02730012  RH  019%=      5-min Rain = 0
KCES 172030Z 21013G19KT 27/01 A2987 RMK A01 T02710005  RH  018%=      5-min Rain = 0
KCES 172035Z 20015G21KT 27/M00 A2986 RMK A01 T02731003  RH  017%=      5-min Rain = 0
KCES 172040Z 19015KT 28/M00 A2986 RMK A01 T02751003  RH  016%=      5-min Rain = 0
KCES 172045Z 20014G19KT 27/M00 A2986 RMK A01 T02741002  RH  017%=      5-min Rain = 0
KCES 172050Z 21013G22KT 27/M00 A2986 RMK A01 T02731004  RH  017%=      5-min Rain = 0
KCES 172055Z 20013G19KT 28/M01 A2986 RMK A01 T02761006  RH  016%=      5-min Rain = 0
KCES 172100Z 20015KT 28/M01 A2986 RMK A01 T02751011  RH  015%=      5-min Rain = 0
KCES 172105Z 20012G20KT 28/M01 A2986 RMK A01 T02771009  RH  016%=      5-min Rain = 0
KCES 172110Z 19013KT 28/M01 A2986 RMK A01 T02771014  RH  015%=      5-min Rain = 0
KCES 172115Z 20014G20KT 28/M01 A2986 RMK A01 T02771007  RH  016%=      5-min Rain = 0
KCES 172120Z 20014G20KT 28/M01 A2985 RMK A01 T02761006  RH  016%=      5-min Rain = 0
KCES 172125Z 19014KT 28/M01 A2985 RMK A01 T02751008  RH  016%=      5-min Rain = 0
KCES 172130Z 18012G18KT 28/M01 A2985 RMK A01 T02751011  RH  015%=      5-min Rain = 0
KCES 172135Z 18012G18KT 28/M01 A2985 RMK A01 T02761006  RH  016%=      5-min Rain = 0
KCES 172140Z 19012KT 28/M00 A2985 RMK A01 T02771002  RH  016%=      5-min Rain = 0
KCES 172145Z 19011G17KT 28/M00 A2984 RMK A01 T02761004  RH  016%=      5-min Rain = 0
KCES 172150Z 20013KT 28/M01 A2984 RMK A01 T02761005  RH  016%=      5-min Rain = 0
KCES 172155Z 19012G17KT 27/M00 A2984 RMK A01 T02731003  RH  017%=      5-min Rain = 0
KCES 172200Z 18016G22KT 27/00 A2984 RMK A01 T02730004  RH  018%=      5-min Rain = 0
KCES 172205Z 18014G22KT 27/01 A2984 RMK A01 T02700006  RH  018%=      5-min Rain = 0
KCES 172210Z 18012G18KT 27/01 A2984 RMK A01 T02680006  RH  018%=      5-min Rain = 0
KCES 172215Z 18015G20KT 27/00 A2984 RMK A01 T02700004  RH  018%=      5-min Rain = 0
KCES 172220Z 18015G22KT 27/00 A2984 RMK A01 T026700-0  RH  018%=      5-min Rain = 0
KCES 172225Z 18014G20KT 27/00 A2984 RMK A01 T02660002  RH  018%=      5-min Rain = 0
KCES 172230Z 19016G21KT 26/M00 A2984 RMK A01 T02641002  RH  018%=      5-min Rain = 0
KCES 172235Z 18016G21KT 26/00 A2984 RMK A01 T02630001  RH  018%=      5-min Rain = 0
KCES 172240Z 18016KT 26/00 A2984 RMK A01 T02630003  RH  018%=      5-min Rain = 0
KCES 172245Z 18014KT 26/01 A2984 RMK A01 T02620005  RH  019%=      5-min Rain = 0
KCES 172250Z 18014G19KT 26/01 A2983 RMK A01 T02620009  RH  019%=      5-min Rain = 0
KCES 172255Z 17014KT 26/01 A2983 RMK A01 T02590013  RH  020%=      5-min Rain = 0
KCES 172300Z 17013G18KT 26/01 A2983 RMK A01 T02570014  RH  021%=      5-min Rain = 0
KCES 172305Z 17012KT 25/01 A2983 RMK A01 T02530014  RH  021%=      5-min Rain = 0
KCES 172310Z 17013KT 25/01 A2983 RMK A01 T02490013  RH  022%=      5-min Rain = 0
KCES 172315Z 18012KT 25/01 A2983 RMK A01 T02480014  RH  022%=      5-min Rain = 0
KCES 172320Z 18013KT 25/01 A2983 RMK A01 T02480014  RH  022%=      5-min Rain = 0
KCES 172325Z 17014G20KT 25/02 A2983 RMK A01 T02460015  RH  022%=      5-min Rain = 0
KCES 172330Z 17013KT 24/02 A2983 RMK A01 T02430015  RH  023%=      5-min Rain = 0
KCES 172335Z 17014G19KT 24/02 A2982 RMK A01 T02400017  RH  023%=      5-min Rain = 0
KCES 172340Z 17013KT 24/02 A2982 RMK A01 T02370019  RH  024%=      5-min Rain = 0
KCES 172345Z 17012G17KT 23/02 A2982 RMK A01 T02340019  RH  025%=      5-min Rain = 0
KCES 172350Z 17012KT 23/02 A2982 RMK A01 T02320020  RH  025%=      5-min Rain = 0
KCES 172355Z 17011KT 23/02 A2982 RMK A01 T02290021  RH  026%=      5-min Rain = 0
KCES 180000Z 17011KT 23/02 A2982 RMK A01 T02250023  RH  027%=      5-min Rain = 0
KCES 180005Z 17011KT 22/02 A2982 RMK A01 T02220024  RH  028%=      5-min Rain = 0
KCES 180010Z 17012KT 22/03 A2982 RMK A01 T02210025  RH  028%=      5-min Rain = 0
KCES 180015Z 17012KT 22/03 A2982 RMK A01 T02200025  RH  028%=      5-min Rain = 0
KCES 180020Z 17012KT 22/03 A2982 RMK A01 T02200025  RH  028%=      5-min Rain = 0
KCES 180025Z 17011KT 22/03 A2982 RMK A01 T02170026  RH  029%=      5-min Rain = 0
KCES 180030Z 16011KT 21/03 A2982 RMK A01 T02130027  RH  030%=      5-min Rain = 0
KCES 180035Z 16011KT 21/03 A2982 RMK A01 T02110028  RH  030%=      5-min Rain = 0
KCES 180040Z 16011KT 21/03 A2982 RMK A01 T02100031  RH  031%=      5-min Rain = 0
KCES 180045Z 16011KT 21/03 A2982 RMK A01 T02080034  RH  032%=      5-min Rain = 0
KCES 180050Z 16012KT 21/04 A2982 RMK A01 T02070036  RH  033%=      5-min Rain = 0
KCES 180055Z 16012KT 21/04 A2982 RMK A01 T02070037  RH  033%=      5-min Rain = 0
KCES 180100Z 16012KT 21/04 A2982 RMK A01 T02060037  RH  034%=      5-min Rain = 0
KCES 180105Z 16012KT 21/04 A2983 RMK A01 T02050038  RH  034%=      5-min Rain = 0
KCES 180110Z 16012KT 20/04 A2982 RMK A01 T02040038  RH  034%=      5-min Rain = 0
KCES 180115Z 16013KT 20/04 A2982 RMK A01 T02040038  RH  034%=      5-min Rain = 0
KCES 180120Z 16014KT 21/04 A2982 RMK A01 T02050037  RH  034%=      5-min Rain = 0
KCES 180125Z 16014KT 20/04 A2982 RMK A01 T02040038  RH  034%=      5-min Rain = 0
KCES 180130Z 16014KT 20/04 A2982 RMK A01 T02040038  RH  034%=      5-min Rain = 0
KCES 180135Z 16014G19KT 20/04 A2982 RMK A01 T02030038  RH  034%=      5-min Rain = 0
KCES 180140Z 16013KT 20/04 A2982 RMK A01 T02000038  RH  035%=      5-min Rain = 0
KCES 180145Z 16013KT 20/04 A2982 RMK A01 T01980037  RH  035%=      5-min Rain = 0
KCES 180150Z 15014G21KT 20/04 A2982 RMK A01 T01980035  RH  035%=      5-min Rain = 0
KCES 180155Z 15016G21KT 20/03 A2982 RMK A01 T01970031  RH  034%=      5-min Rain = 0
KCES 180200Z 15015KT 20/03 A2982 RMK A01 T01960029  RH  034%=      5-min Rain = 0
KCES 180205Z 15014G19KT 20/03 A2983 RMK A01 T01950026  RH  033%=      5-min Rain = 0
KCES 180210Z 15014KT 19/02 A2983 RMK A01 T01940022  RH  032%=      5-min Rain = 0
KCES 180215Z 15015G22KT 19/02 A2983 RMK A01 T01930017  RH  031%=      5-min Rain = 0
KCES 180220Z 15015KT 19/01 A2983 RMK A01 T01910012  RH  031%=      5-min Rain = 0
KCES 180225Z 15016G22KT 19/01 A2982 RMK A01 T01910008  RH  030%=      5-min Rain = 0
KCES 180230Z 16015G21KT 19/01 A2983 RMK A01 T01900005  RH  029%=      5-min Rain = 0
KCES 180235Z 16016G22KT 19/00 A2983 RMK A01 T01890003  RH  029%=      5-min Rain = 0
KCES 180240Z 16016KT 19/00 A2983 RMK A01 T01880002  RH  029%=      5-min Rain = 0
KCES 180245Z 16016G22KT 19/00 A2983 RMK A01 T01870001  RH  029%=      5-min Rain = 0
KCES 180250Z 16015G20KT 19/00 A2983 RMK A01 T01860001  RH  029%=      5-min Rain = 0
KCES 180255Z 16014KT 18/00 A2984 RMK A01 T01840001  RH  029%=      5-min Rain = 0
KCES 180300Z 16014G19KT 18/00 A2983 RMK A01 T01820000  RH  030%=      5-min Rain = 0
KCES 180305Z 16015KT 18/M00 A2983 RMK A01 T01811001  RH  030%=      5-min Rain = 0
KCES 180310Z 16015KT 18/M00 A2983 RMK A01 T01811002  RH  029%=      5-min Rain = 0
KCES 180315Z 16014KT 18/M00 A2984 RMK A01 T01801003  RH  029%=      5-min Rain = 0
KCES 180320Z 16014KT 18/M00 A2984 RMK A01 T01771003  RH  030%=      5-min Rain = 0
KCES 180325Z 16013G18KT 18/M00 A2984 RMK A01 T01761004  RH  030%=      5-min Rain = 0
KCES 180330Z 17014KT 18/M01 A2984 RMK A01 T01751005  RH  030%=      5-min Rain = 0
KCES 180335Z 17014G19KT 17/M01 A2984 RMK A01 T01741006  RH  030%=      5-min Rain = 0
KCES 180340Z 16014G19KT 17/M01 A2984 RMK A01 T01731006  RH  030%=      5-min Rain = 0
KCES 180345Z 16014G20KT 17/M01 A2984 RMK A01 T01711007  RH  030%=      5-min Rain = 0
KCES 180350Z 16015KT 17/M01 A2984 RMK A01 T01701007  RH  030%=      5-min Rain = 0
KCES 180355Z 16014KT 17/M01 A2983 RMK A01 T01691007  RH  030%=      5-min Rain = 0
KCES 180400Z 16014G19KT 17/M01 A2984 RMK A01 T01681008  RH  031%=      5-min Rain = 0
KCES 180405Z 16014KT 17/M01 A2984 RMK A01 T01661008  RH  031%=      5-min Rain = 0
KCES 180410Z 16015KT 17/M01 A2983 RMK A01 T01661008  RH  031%=      5-min Rain = 0
KCES 180415Z 16014KT 17/M01 A2983 RMK A01 T01651008  RH  031%=      5-min Rain = 0
KCES 180420Z 16014KT 16/M01 A2983 RMK A01 T01641007  RH  031%=      5-min Rain = 0
KCES 180425Z 16014KT 16/M01 A2983 RMK A01 T01621007  RH  032%=      5-min Rain = 0
KCES 180430Z 16014G19KT 16/M01 A2983 RMK A01 T01611007  RH  032%=      5-min Rain = 0
KCES 180435Z 16015KT 16/M01 A2983 RMK A01 T01611006  RH  032%=      5-min Rain = 0
KCES 180440Z 16015KT 16/M01 A2983 RMK A01 T01601005  RH  033%=      5-min Rain = 0
KCES 180445Z 16015G20KT 16/M00 A2983 RMK A01 T01601004  RH  033%=      5-min Rain = 0
KCES 180450Z 17016KT 16/M00 A2983 RMK A01 T01611003  RH  033%=      5-min Rain = 0
KCES 180455Z 17017KT 16/M00 A2982 RMK A01 T01611001  RH  033%=      5-min Rain = 0

Page generated in 0.0091 seconds.